sensor_id;sensor_type;location;lat;lon;timestamp;temperature;humidity
19908;DHT22;10116;53.112;7.356;2022-11-15T00:00:07;25.40;73.30
19908;DHT22;10116;53.112;7.356;2022-11-15T00:02:33;25.40;73.20
19908;DHT22;10116;53.112;7.356;2022-11-15T00:04:59;25.40;73.80
19908;DHT22;10116;53.112;7.356;2022-11-15T00:07:24;25.40;73.20
19908;DHT22;10116;53.112;7.356;2022-11-15T00:09:50;25.40;73.40
19908;DHT22;10116;53.112;7.356;2022-11-15T00:12:15;25.40;73.40
19908;DHT22;10116;53.112;7.356;2022-11-15T00:14:41;25.40;73.90
19908;DHT22;10116;53.112;7.356;2022-11-15T00:17:07;25.40;73.60
19908;DHT22;10116;53.112;7.356;2022-11-15T00:19:32;25.40;74.20
19908;DHT22;10116;53.112;7.356;2022-11-15T00:21:58;25.40;73.50
19908;DHT22;10116;53.112;7.356;2022-11-15T00:24:24;25.40;74.50
19908;DHT22;10116;53.112;7.356;2022-11-15T00:26:49;25.40;73.30
19908;DHT22;10116;53.112;7.356;2022-11-15T00:29:15;25.40;74.70
19908;DHT22;10116;53.112;7.356;2022-11-15T00:31:40;25.40;74.10
19908;DHT22;10116;53.112;7.356;2022-11-15T00:34:06;25.40;74.00
19908;DHT22;10116;53.112;7.356;2022-11-15T00:36:35;25.40;74.20
19908;DHT22;10116;53.112;7.356;2022-11-15T00:39:00;25.40;74.10
19908;DHT22;10116;53.112;7.356;2022-11-15T00:41:26;25.40;73.90
19908;DHT22;10116;53.112;7.356;2022-11-15T00:43:51;25.40;75.30
19908;DHT22;10116;53.112;7.356;2022-11-15T00:46:17;25.40;73.90
19908;DHT22;10116;53.112;7.356;2022-11-15T00:48:43;25.40;74.50
19908;DHT22;10116;53.112;7.356;2022-11-15T00:51:08;25.40;75.10
19908;DHT22;10116;53.112;7.356;2022-11-15T00:53:34;25.40;74.50
19908;DHT22;10116;53.112;7.356;2022-11-15T00:55:59;25.40;90.30
19908;DHT22;10116;53.112;7.356;2022-11-15T00:58:25;25.40;74.60
19908;DHT22;10116;53.112;7.356;2022-11-15T01:00:51;25.40;74.30
19908;DHT22;10116;53.112;7.356;2022-11-15T01:03:16;25.40;74.40
19908;DHT22;10116;53.112;7.356;2022-11-15T01:05:42;25.40;75.00
19908;DHT22;10116;53.112;7.356;2022-11-15T01:08:15;25.40;74.80
19908;DHT22;10116;53.112;7.356;2022-11-15T01:10:41;25.40;74.30
19908;DHT22;10116;53.112;7.356;2022-11-15T01:13:07;25.40;74.20
19908;DHT22;10116;53.112;7.356;2022-11-15T01:15:33;25.40;74.40
19908;DHT22;10116;53.112;7.356;2022-11-15T01:17:58;25.40;75.40
19908;DHT22;10116;53.112;7.356;2022-11-15T01:20:24;25.40;74.10
19908;DHT22;10116;53.112;7.356;2022-11-15T01:22:49;25.40;74.60
19908;DHT22;10116;53.112;7.356;2022-11-15T01:25:15;25.40;74.50
19908;DHT22;10116;53.112;7.356;2022-11-15T01:27:41;25.40;74.20
19908;DHT22;10116;53.112;7.356;2022-11-15T01:30:07;25.40;74.50
19908;DHT22;10116;53.112;7.356;2022-11-15T01:32:33;25.40;74.30
19908;DHT22;10116;53.112;7.356;2022-11-15T01:34:59;25.40;75.10
19908;DHT22;10116;53.112;7.356;2022-11-15T01:37:24;25.40;74.20
19908;DHT22;10116;53.112;7.356;2022-11-15T01:39:50;25.40;74.50
19908;DHT22;10116;53.112;7.356;2022-11-15T01:42:16;25.40;75.10
19908;DHT22;10116;53.112;7.356;2022-11-15T01:44:48;25.40;75.80
19908;DHT22;10116;53.112;7.356;2022-11-15T01:47:24;25.40;74.90
19908;DHT22;10116;53.112;7.356;2022-11-15T01:50:02;25.40;74.50
19908;DHT22;10116;53.112;7.356;2022-11-15T01:52:31;25.40;75.90
19908;DHT22;10116;53.112;7.356;2022-11-15T01:55:14;25.40;75.80
19908;DHT22;10116;53.112;7.356;2022-11-15T01:57:42;25.40;74.70
19908;DHT22;10116;53.112;7.356;2022-11-15T02:00:08;25.40;74.80
19908;DHT22;10116;53.112;7.356;2022-11-15T02:02:36;25.40;75.40
19908;DHT22;10116;53.112;7.356;2022-11-15T02:05:03;25.40;74.30
19908;DHT22;10116;53.112;7.356;2022-11-15T02:07:29;25.40;74.90
19908;DHT22;10116;53.112;7.356;2022-11-15T02:09:58;25.40;75.10
19908;DHT22;10116;53.112;7.356;2022-11-15T02:12:25;25.40;75.10
19908;DHT22;10116;53.112;7.356;2022-11-15T02:14:53;25.40;75.10
19908;DHT22;10116;53.112;7.356;2022-11-15T02:26:57;25.40;75.10
19908;DHT22;10116;53.112;7.356;2022-11-15T02:29:10;25.40;75.00
19908;DHT22;10116;53.112;7.356;2022-11-15T02:32:18;25.40;76.40
19908;DHT22;10116;53.112;7.356;2022-11-15T02:37:56;25.40;74.70
19908;DHT22;10116;53.112;7.356;2022-11-15T02:43:19;25.40;75.30
19908;DHT22;10116;53.112;7.356;2022-11-15T02:49:12;25.40;75.70
19908;DHT22;10116;53.112;7.356;2022-11-15T02:51:38;25.40;75.00
19908;DHT22;10116;53.112;7.356;2022-11-15T02:54:04;25.40;75.90
19908;DHT22;10116;53.112;7.356;2022-11-15T02:56:30;25.40;75.70
19908;DHT22;10116;53.112;7.356;2022-11-15T02:59:09;25.40;75.70
19908;DHT22;10116;53.112;7.356;2022-11-15T03:04:55;25.40;75.70
19908;DHT22;10116;53.112;7.356;2022-11-15T03:10:26;25.40;75.30
19908;DHT22;10116;53.112;7.356;2022-11-15T03:15:57;25.40;75.90
19908;DHT22;10116;53.112;7.356;2022-11-15T03:18:33;25.40;75.30
19908;DHT22;10116;53.112;7.356;2022-11-15T03:21:03;25.40;75.80
19908;DHT22;10116;53.112;7.356;2022-11-15T03:23:30;25.40;75.90
19908;DHT22;10116;53.112;7.356;2022-11-15T03:25:58;25.40;76.00
19908;DHT22;10116;53.112;7.356;2022-11-15T03:28:42;25.40;75.80
19908;DHT22;10116;53.112;7.356;2022-11-15T03:31:11;25.40;75.50
19908;DHT22;10116;53.112;7.356;2022-11-15T03:34:00;25.40;75.60
19908;DHT22;10116;53.112;7.356;2022-11-15T03:36:28;25.40;75.50
19908;DHT22;10116;53.112;7.356;2022-11-15T03:39:00;25.40;75.50
19908;DHT22;10116;53.112;7.356;2022-11-15T03:41:46;25.40;77.00
19908;DHT22;10116;53.112;7.356;2022-11-15T03:47:00;25.40;77.00
19908;DHT22;10116;53.112;7.356;2022-11-15T03:49:34;25.40;76.40
19908;DHT22;10116;53.112;7.356;2022-11-15T03:52:01;25.40;76.50
19908;DHT22;10116;53.112;7.356;2022-11-15T03:54:28;25.40;75.80
19908;DHT22;10116;53.112;7.356;2022-11-15T03:56:53;25.40;75.60
19908;DHT22;10116;53.112;7.356;2022-11-15T03:59:19;25.40;75.70
19908;DHT22;10116;53.112;7.356;2022-11-15T04:01:44;25.40;76.10
19908;DHT22;10116;53.112;7.356;2022-11-15T04:04:10;25.40;76.80
19908;DHT22;10116;53.112;7.356;2022-11-15T04:06:36;25.40;75.60
19908;DHT22;10116;53.112;7.356;2022-11-15T04:09:02;25.40;76.10
19908;DHT22;10116;53.112;7.356;2022-11-15T04:11:27;25.40;76.50
19908;DHT22;10116;53.112;7.356;2022-11-15T04:13:53;25.40;76.60
19908;DHT22;10116;53.112;7.356;2022-11-15T04:16:18;25.40;76.90
19908;DHT22;10116;53.112;7.356;2022-11-15T04:18:44;25.40;76.00
19908;DHT22;10116;53.112;7.356;2022-11-15T04:21:10;25.40;76.90
19908;DHT22;10116;53.112;7.356;2022-11-15T04:23:54;25.40;76.00
19908;DHT22;10116;53.112;7.356;2022-11-15T04:26:37;25.40;77.40
19908;DHT22;10116;53.112;7.356;2022-11-15T04:29:03;25.40;77.00
19908;DHT22;10116;53.112;7.356;2022-11-15T04:31:47;25.40;76.60
19908;DHT22;10116;53.112;7.356;2022-11-15T04:34:13;25.40;78.30
19908;DHT22;10116;53.112;7.356;2022-11-15T04:36:38;25.50;79.50
19908;DHT22;10116;53.112;7.356;2022-11-15T04:39:23;25.50;79.50
19908;DHT22;10116;53.112;7.356;2022-11-15T04:41:48;25.60;79.70
19908;DHT22;10116;53.112;7.356;2022-11-15T04:44:14;25.60;79.50
19908;DHT22;10116;53.112;7.356;2022-11-15T04:46:39;25.60;80.20
19908;DHT22;10116;53.112;7.356;2022-11-15T04:49:05;25.70;92.80
19908;DHT22;10116;53.112;7.356;2022-11-15T04:51:30;25.70;81.10
19908;DHT22;10116;53.112;7.356;2022-11-15T04:53:56;25.70;80.40
19908;DHT22;10116;53.112;7.356;2022-11-15T04:56:22;25.70;80.80
19908;DHT22;10116;53.112;7.356;2022-11-15T04:58:50;25.70;81.10
19908;DHT22;10116;53.112;7.356;2022-11-15T05:01:17;25.70;80.50
19908;DHT22;10116;53.112;7.356;2022-11-15T05:03:44;25.70;80.50
19908;DHT22;10116;53.112;7.356;2022-11-15T05:06:29;25.70;79.90
19908;DHT22;10116;53.112;7.356;2022-11-15T05:08:55;25.70;80.20
19908;DHT22;10116;53.112;7.356;2022-11-15T05:11:21;25.70;80.50
19908;DHT22;10116;53.112;7.356;2022-11-15T05:13:46;25.70;80.00
19908;DHT22;10116;53.112;7.356;2022-11-15T05:16:12;25.70;80.20
19908;DHT22;10116;53.112;7.356;2022-11-15T05:18:38;25.70;80.30
19908;DHT22;10116;53.112;7.356;2022-11-15T05:21:09;25.70;80.70
19908;DHT22;10116;53.112;7.356;2022-11-15T05:23:34;25.70;80.90
19908;DHT22;10116;53.112;7.356;2022-11-15T05:26:04;25.70;80.70
19908;DHT22;10116;53.112;7.356;2022-11-15T05:28:30;25.70;81.10
19908;DHT22;10116;53.112;7.356;2022-11-15T05:31:12;25.70;81.30
19908;DHT22;10116;53.112;7.356;2022-11-15T05:33:39;25.70;80.50
19908;DHT22;10116;53.112;7.356;2022-11-15T05:36:31;25.70;81.40
19908;DHT22;10116;53.112;7.356;2022-11-15T05:38:59;25.80;83.20
19908;DHT22;10116;53.112;7.356;2022-11-15T05:41:36;25.80;82.10
19908;DHT22;10116;53.112;7.356;2022-11-15T05:44:05;25.80;83.40
19908;DHT22;10116;53.112;7.356;2022-11-15T05:46:32;25.80;82.70
19908;DHT22;10116;53.112;7.356;2022-11-15T05:48:58;25.80;83.60
19908;DHT22;10116;53.112;7.356;2022-11-15T05:51:24;25.90;83.40
19908;DHT22;10116;53.112;7.356;2022-11-15T05:53:52;25.90;94.20
19908;DHT22;10116;53.112;7.356;2022-11-15T05:56:18;25.90;82.80
19908;DHT22;10116;53.112;7.356;2022-11-15T05:58:44;25.90;83.20
19908;DHT22;10116;53.112;7.356;2022-11-15T06:01:10;25.90;83.10
19908;DHT22;10116;53.112;7.356;2022-11-15T06:03:36;25.90;83.30
19908;DHT22;10116;53.112;7.356;2022-11-15T06:06:01;25.80;83.50
19908;DHT22;10116;53.112;7.356;2022-11-15T06:08:27;25.90;83.90
19908;DHT22;10116;53.112;7.356;2022-11-15T06:10:52;25.80;82.40
19908;DHT22;10116;53.112;7.356;2022-11-15T06:13:18;25.80;83.90
19908;DHT22;10116;53.112;7.356;2022-11-15T06:15:43;25.80;83.20
19908;DHT22;10116;53.112;7.356;2022-11-15T06:18:09;25.80;83.10
19908;DHT22;10116;53.112;7.356;2022-11-15T06:20:35;25.80;82.50
19908;DHT22;10116;53.112;7.356;2022-11-15T06:23:02;25.80;83.60
19908;DHT22;10116;53.112;7.356;2022-11-15T06:25:29;25.80;82.50
19908;DHT22;10116;53.112;7.356;2022-11-15T06:27:56;25.80;82.50
19908;DHT22;10116;53.112;7.356;2022-11-15T06:30:23;25.80;82.60
19908;DHT22;10116;53.112;7.356;2022-11-15T06:32:49;25.80;82.00
19908;DHT22;10116;53.112;7.356;2022-11-15T06:35:15;25.80;84.10
19908;DHT22;10116;53.112;7.356;2022-11-15T06:37:41;25.80;82.40
19908;DHT22;10116;53.112;7.356;2022-11-15T06:40:08;25.80;83.60
19908;DHT22;10116;53.112;7.356;2022-11-15T06:42:34;25.80;83.30
19908;DHT22;10116;53.112;7.356;2022-11-15T06:45:00;25.90;84.20
19908;DHT22;10116;53.112;7.356;2022-11-15T06:47:26;25.90;85.00
19908;DHT22;10116;53.112;7.356;2022-11-15T06:49:52;25.90;84.20
19908;DHT22;10116;53.112;7.356;2022-11-15T06:52:17;25.90;84.10
19908;DHT22;10116;53.112;7.356;2022-11-15T06:54:47;25.90;84.30
19908;DHT22;10116;53.112;7.356;2022-11-15T06:57:12;25.80;83.20
19908;DHT22;10116;53.112;7.356;2022-11-15T06:59:38;25.80;82.70
19908;DHT22;10116;53.112;7.356;2022-11-15T07:02:03;25.70;83.20
19908;DHT22;10116;53.112;7.356;2022-11-15T07:04:29;25.70;82.70
19908;DHT22;10116;53.112;7.356;2022-11-15T07:06:55;25.70;82.60
19908;DHT22;10116;53.112;7.356;2022-11-15T07:09:20;25.60;82.70
19908;DHT22;10116;53.112;7.356;2022-11-15T07:11:46;25.60;79.80
19908;DHT22;10116;53.112;7.356;2022-11-15T07:14:11;25.60;81.80
19908;DHT22;10116;53.112;7.356;2022-11-15T07:16:37;25.70;81.70
19908;DHT22;10116;53.112;7.356;2022-11-15T07:19:03;25.60;81.90
19908;DHT22;10116;53.112;7.356;2022-11-15T07:21:29;25.60;82.20
19908;DHT22;10116;53.112;7.356;2022-11-15T07:23:54;25.60;83.50
19908;DHT22;10116;53.112;7.356;2022-11-15T07:26:20;25.60;82.70
19908;DHT22;10116;53.112;7.356;2022-11-15T07:28:46;25.60;83.30
19908;DHT22;10116;53.112;7.356;2022-11-15T07:31:11;25.60;82.80
19908;DHT22;10116;53.112;7.356;2022-11-15T07:33:37;25.60;82.70
19908;DHT22;10116;53.112;7.356;2022-11-15T07:36:04;25.60;83.00
19908;DHT22;10116;53.112;7.356;2022-11-15T07:38:33;25.60;83.60
19908;DHT22;10116;53.112;7.356;2022-11-15T07:41:01;25.60;85.60
19908;DHT22;10116;53.112;7.356;2022-11-15T07:43:27;25.60;85.00
19908;DHT22;10116;53.112;7.356;2022-11-15T07:45:53;25.70;85.80
19908;DHT22;10116;53.112;7.356;2022-11-15T07:48:19;25.70;85.70
19908;DHT22;10116;53.112;7.356;2022-11-15T07:50:45;25.70;86.20
19908;DHT22;10116;53.112;7.356;2022-11-15T07:53:10;25.80;86.20
19908;DHT22;10116;53.112;7.356;2022-11-15T07:55:37;25.80;86.40
19908;DHT22;10116;53.112;7.356;2022-11-15T07:58:03;25.80;86.80
19908;DHT22;10116;53.112;7.356;2022-11-15T08:00:29;25.80;86.70
19908;DHT22;10116;53.112;7.356;2022-11-15T08:03:22;25.80;87.30
19908;DHT22;10116;53.112;7.356;2022-11-15T08:05:51;25.80;86.90
19908;DHT22;10116;53.112;7.356;2022-11-15T08:08:16;25.80;87.00
19908;DHT22;10116;53.112;7.356;2022-11-15T08:10:42;25.80;86.80
19908;DHT22;10116;53.112;7.356;2022-11-15T08:13:10;25.80;87.50
19908;DHT22;10116;53.112;7.356;2022-11-15T08:15:36;25.80;87.60
19908;DHT22;10116;53.112;7.356;2022-11-15T08:18:08;25.90;86.80
19908;DHT22;10116;53.112;7.356;2022-11-15T08:20:34;25.90;87.40
19908;DHT22;10116;53.112;7.356;2022-11-15T08:23:02;25.90;87.40
19908;DHT22;10116;53.112;7.356;2022-11-15T08:25:30;25.80;87.50
19908;DHT22;10116;53.112;7.356;2022-11-15T08:27:58;25.80;87.20
19908;DHT22;10116;53.112;7.356;2022-11-15T08:30:24;25.90;87.50
19908;DHT22;10116;53.112;7.356;2022-11-15T08:32:51;25.80;88.10
19908;DHT22;10116;53.112;7.356;2022-11-15T08:35:18;25.60;95.10
19908;DHT22;10116;53.112;7.356;2022-11-15T08:37:44;25.60;85.20
19908;DHT22;10116;53.112;7.356;2022-11-15T08:40:09;25.60;85.30
19908;DHT22;10116;53.112;7.356;2022-11-15T08:42:35;25.60;86.10
19908;DHT22;10116;53.112;7.356;2022-11-15T08:45:01;25.70;88.00
19908;DHT22;10116;53.112;7.356;2022-11-15T08:47:27;25.70;88.20
19908;DHT22;10116;53.112;7.356;2022-11-15T08:49:52;25.80;89.20
19908;DHT22;10116;53.112;7.356;2022-11-15T08:52:18;25.80;88.30
19908;DHT22;10116;53.112;7.356;2022-11-15T08:54:44;25.80;89.20
19908;DHT22;10116;53.112;7.356;2022-11-15T08:57:09;25.90;90.00
19908;DHT22;10116;53.112;7.356;2022-11-15T08:59:36;25.90;90.10
19908;DHT22;10116;53.112;7.356;2022-11-15T09:02:02;25.90;89.90
19908;DHT22;10116;53.112;7.356;2022-11-15T09:04:27;25.90;90.20
19908;DHT22;10116;53.112;7.356;2022-11-15T09:06:53;25.90;90.10
19908;DHT22;10116;53.112;7.356;2022-11-15T09:09:19;25.90;90.10
19908;DHT22;10116;53.112;7.356;2022-11-15T09:11:44;25.90;90.10
19908;DHT22;10116;53.112;7.356;2022-11-15T09:14:11;25.90;90.00
19908;DHT22;10116;53.112;7.356;2022-11-15T09:16:37;25.90;90.10
19908;DHT22;10116;53.112;7.356;2022-11-15T09:19:03;25.90;90.00
19908;DHT22;10116;53.112;7.356;2022-11-15T09:21:30;25.90;90.10
19908;DHT22;10116;53.112;7.356;2022-11-15T09:23:56;25.90;90.10
19908;DHT22;10116;53.112;7.356;2022-11-15T09:26:21;25.90;90.20
19908;DHT22;10116;53.112;7.356;2022-11-15T09:28:47;25.90;89.90
19908;DHT22;10116;53.112;7.356;2022-11-15T09:31:13;25.90;90.20
19908;DHT22;10116;53.112;7.356;2022-11-15T09:33:39;25.90;90.20
19908;DHT22;10116;53.112;7.356;2022-11-15T09:36:07;25.90;89.80
19908;DHT22;10116;53.112;7.356;2022-11-15T09:38:33;25.90;90.50
19908;DHT22;10116;53.112;7.356;2022-11-15T09:47:40;25.80;89.20
19908;DHT22;10116;53.112;7.356;2022-11-15T09:49:38;25.80;89.70
19908;DHT22;10116;53.112;7.356;2022-11-15T09:52:04;25.80;89.70
19908;DHT22;10116;53.112;7.356;2022-11-15T09:54:38;25.80;90.00
19908;DHT22;10116;53.112;7.356;2022-11-15T09:57:14;25.80;90.00
19908;DHT22;10116;53.112;7.356;2022-11-15T10:00:17;25.80;90.60
19908;DHT22;10116;53.112;7.356;2022-11-15T10:05:18;25.80;90.10
19908;DHT22;10116;53.112;7.356;2022-11-15T10:10:50;25.70;89.90
19908;DHT22;10116;53.112;7.356;2022-11-15T10:13:22;25.70;90.50
19908;DHT22;10116;53.112;7.356;2022-11-15T10:15:49;25.80;90.20
19908;DHT22;10116;53.112;7.356;2022-11-15T10:18:35;25.80;91.00
19908;DHT22;10116;53.112;7.356;2022-11-15T10:24:19;25.90;91.40
19908;DHT22;10116;53.112;7.356;2022-11-15T10:26:47;25.90;91.80
19908;DHT22;10116;53.112;7.356;2022-11-15T10:29:18;25.90;92.30
19908;DHT22;10116;53.112;7.356;2022-11-15T10:31:44;25.90;92.00
19908;DHT22;10116;53.112;7.356;2022-11-15T10:34:36;26.00;91.80
19908;DHT22;10116;53.112;7.356;2022-11-15T10:37:02;26.00;91.90
19908;DHT22;10116;53.112;7.356;2022-11-15T10:39:28;26.00;91.90
19908;DHT22;10116;53.112;7.356;2022-11-15T10:41:54;26.00;91.90
19908;DHT22;10116;53.112;7.356;2022-11-15T10:44:31;26.00;91.90
19908;DHT22;10116;53.112;7.356;2022-11-15T10:49:30;26.00;91.90
19908;DHT22;10116;53.112;7.356;2022-11-15T10:52:17;26.00;92.00
19908;DHT22;10116;53.112;7.356;2022-11-15T10:54:48;25.90;91.90
19908;DHT22;10116;53.112;7.356;2022-11-15T10:57:17;25.90;92.30
19908;DHT22;10116;53.112;7.356;2022-11-15T10:59:56;25.90;91.90
19908;DHT22;10116;53.112;7.356;2022-11-15T11:04:51;25.90;92.10
19908;DHT22;10116;53.112;7.356;2022-11-15T11:07:23;25.90;91.70
19908;DHT22;10116;53.112;7.356;2022-11-15T11:09:58;25.90;91.80
19908;DHT22;10116;53.112;7.356;2022-11-15T11:12:29;25.90;91.80
19908;DHT22;10116;53.112;7.356;2022-11-15T11:14:57;25.90;91.80
19908;DHT22;10116;53.112;7.356;2022-11-15T11:20:32;25.90;92.00
19908;DHT22;10116;53.112;7.356;2022-11-15T11:28:52;25.90;93.00
19908;DHT22;10116;53.112;7.356;2022-11-15T11:37:09;26.00;93.80
19908;DHT22;10116;53.112;7.356;2022-11-15T11:42:53;26.00;94.00
19908;DHT22;10116;53.112;7.356;2022-11-15T11:46:22;26.00;93.80
19908;DHT22;10116;53.112;7.356;2022-11-15T11:48:50;26.00;93.80
19908;DHT22;10116;53.112;7.356;2022-11-15T11:51:18;26.00;94.50
19908;DHT22;10116;53.112;7.356;2022-11-15T11:56:44;26.00;93.90
19908;DHT22;10116;53.112;7.356;2022-11-15T11:59:23;26.00;94.10
19908;DHT22;10116;53.112;7.356;2022-11-15T12:01:51;26.00;94.30
19908;DHT22;10116;53.112;7.356;2022-11-15T12:04:21;25.90;94.10
19908;DHT22;10116;53.112;7.356;2022-11-15T12:07:03;25.90;94.30
19908;DHT22;10116;53.112;7.356;2022-11-15T12:09:48;25.90;94.50
19908;DHT22;10116;53.112;7.356;2022-11-15T12:12:28;26.00;95.50
19908;DHT22;10116;53.112;7.356;2022-11-15T12:15:00;26.00;94.50
19908;DHT22;10116;53.112;7.356;2022-11-15T12:17:29;26.00;94.20
19908;DHT22;10116;53.112;7.356;2022-11-15T12:20:03;25.90;99.90
19908;DHT22;10116;53.112;7.356;2022-11-15T12:22:39;25.90;94.80
19908;DHT22;10116;53.112;7.356;2022-11-15T12:30:44;26.00;95.30
19908;DHT22;10116;53.112;7.356;2022-11-15T12:33:41;26.00;95.50
19908;DHT22;10116;53.112;7.356;2022-11-15T12:39:02;26.10;95.30
19908;DHT22;10116;53.112;7.356;2022-11-15T12:41:32;26.10;95.40
19908;DHT22;10116;53.112;7.356;2022-11-15T12:43:59;26.10;95.80
19908;DHT22;10116;53.112;7.356;2022-11-15T12:59:52;26.10;95.30
19908;DHT22;10116;53.112;7.356;2022-11-15T13:02:25;26.10;95.60
19908;DHT22;10116;53.112;7.356;2022-11-15T13:04:54;26.10;96.10
19908;DHT22;10116;53.112;7.356;2022-11-15T13:17:47;26.00;95.00
19908;DHT22;10116;53.112;7.356;2022-11-15T13:28:31;25.90;94.80
19908;DHT22;10116;53.112;7.356;2022-11-15T13:31:03;25.90;94.80
19908;DHT22;10116;53.112;7.356;2022-11-15T13:33:39;25.90;94.50
19908;DHT22;10116;53.112;7.356;2022-11-15T13:36:20;25.90;94.70
19908;DHT22;10116;53.112;7.356;2022-11-15T13:38:58;25.90;94.40
19908;DHT22;10116;53.112;7.356;2022-11-15T13:41:33;25.90;94.80
19908;DHT22;10116;53.112;7.356;2022-11-15T13:44:00;25.90;94.50
19908;DHT22;10116;53.112;7.356;2022-11-15T13:46:29;25.90;95.00
19908;DHT22;10116;53.112;7.356;2022-11-15T13:49:12;25.90;95.20
19908;DHT22;10116;53.112;7.356;2022-11-15T13:51:47;25.90;99.90
19908;DHT22;10116;53.112;7.356;2022-11-15T13:54:45;25.80;95.10
19908;DHT22;10116;53.112;7.356;2022-11-15T13:57:22;25.80;94.80
19908;DHT22;10116;53.112;7.356;2022-11-15T13:59:52;25.80;94.50
19908;DHT22;10116;53.112;7.356;2022-11-15T14:02:21;25.80;94.70
19908;DHT22;10116;53.112;7.356;2022-11-15T14:04:55;25.80;94.70
19908;DHT22;10116;53.112;7.356;2022-11-15T14:07:24;25.80;94.60
19908;DHT22;10116;53.112;7.356;2022-11-15T14:09:50;25.80;94.50
19908;DHT22;10116;53.112;7.356;2022-11-15T14:14:47;25.80;94.70
19908;DHT22;10116;53.112;7.356;2022-11-15T14:17:20;25.80;95.00
19908;DHT22;10116;53.112;7.356;2022-11-15T14:19:48;25.90;95.30
19908;DHT22;10116;53.112;7.356;2022-11-15T14:22:20;25.90;95.50
19908;DHT22;10116;53.112;7.356;2022-11-15T14:27:32;26.00;95.50
19908;DHT22;10116;53.112;7.356;2022-11-15T14:29:58;26.00;95.60
19908;DHT22;10116;53.112;7.356;2022-11-15T14:32:24;26.00;95.90
19908;DHT22;10116;53.112;7.356;2022-11-15T14:34:59;26.00;95.60
19908;DHT22;10116;53.112;7.356;2022-11-15T14:37:29;26.00;95.40
19908;DHT22;10116;53.112;7.356;2022-11-15T14:39:58;26.00;95.50
19908;DHT22;10116;53.112;7.356;2022-11-15T14:42:24;26.00;95.20
19908;DHT22;10116;53.112;7.356;2022-11-15T14:44:50;26.00;99.90
19908;DHT22;10116;53.112;7.356;2022-11-15T14:47:16;26.00;95.40
19908;DHT22;10116;53.112;7.356;2022-11-15T14:49:42;26.00;95.20
19908;DHT22;10116;53.112;7.356;2022-11-15T14:52:20;26.00;95.60
19908;DHT22;10116;53.112;7.356;2022-11-15T14:54:48;26.00;95.40
19908;DHT22;10116;53.112;7.356;2022-11-15T14:57:13;26.00;95.10
19908;DHT22;10116;53.112;7.356;2022-11-15T14:59:39;26.00;95.60
19908;DHT22;10116;53.112;7.356;2022-11-15T15:02:16;26.00;95.00
19908;DHT22;10116;53.112;7.356;2022-11-15T15:04:43;26.00;94.90
19908;DHT22;10116;53.112;7.356;2022-11-15T15:07:08;26.00;95.00
19908;DHT22;10116;53.112;7.356;2022-11-15T15:09:34;26.00;94.90
19908;DHT22;10116;53.112;7.356;2022-11-15T15:11:59;26.00;94.80
19908;DHT22;10116;53.112;7.356;2022-11-15T15:14:25;26.00;95.10
19908;DHT22;10116;53.112;7.356;2022-11-15T15:16:51;26.00;95.20
19908;DHT22;10116;53.112;7.356;2022-11-15T15:19:16;26.00;94.50
19908;DHT22;10116;53.112;7.356;2022-11-15T15:21:42;26.00;95.60
19908;DHT22;10116;53.112;7.356;2022-11-15T15:24:13;26.00;95.10
19908;DHT22;10116;53.112;7.356;2022-11-15T15:26:40;26.00;95.00
19908;DHT22;10116;53.112;7.356;2022-11-15T15:29:05;26.10;95.80
19908;DHT22;10116;53.112;7.356;2022-11-15T15:31:32;26.10;95.40
19908;DHT22;10116;53.112;7.356;2022-11-15T15:33:58;26.10;95.70
19908;DHT22;10116;53.112;7.356;2022-11-15T15:36:24;26.10;95.30
19908;DHT22;10116;53.112;7.356;2022-11-15T15:38:49;26.10;95.10
19908;DHT22;10116;53.112;7.356;2022-11-15T15:41:16;26.10;95.20
19908;DHT22;10116;53.112;7.356;2022-11-15T15:43:42;26.10;95.20
19908;DHT22;10116;53.112;7.356;2022-11-15T15:46:10;26.10;94.70
19908;DHT22;10116;53.112;7.356;2022-11-15T15:48:36;26.10;94.60
19908;DHT22;10116;53.112;7.356;2022-11-15T15:51:03;26.00;94.90
19908;DHT22;10116;53.112;7.356;2022-11-15T15:53:29;26.00;94.50
19908;DHT22;10116;53.112;7.356;2022-11-15T15:55:55;26.00;94.90
19908;DHT22;10116;53.112;7.356;2022-11-15T15:58:21;26.00;94.10
19908;DHT22;10116;53.112;7.356;2022-11-15T16:00:46;26.00;94.10
19908;DHT22;10116;53.112;7.356;2022-11-15T16:03:12;26.00;94.40
19908;DHT22;10116;53.112;7.356;2022-11-15T16:05:38;26.00;94.20
19908;DHT22;10116;53.112;7.356;2022-11-15T16:08:03;25.90;93.80
19908;DHT22;10116;53.112;7.356;2022-11-15T16:10:33;25.90;93.80
19908;DHT22;10116;53.112;7.356;2022-11-15T16:12:59;25.90;94.70
19908;DHT22;10116;53.112;7.356;2022-11-15T16:15:27;25.90;93.80
19908;DHT22;10116;53.112;7.356;2022-11-15T16:17:56;25.90;93.70
19908;DHT22;10116;53.112;7.356;2022-11-15T16:20:23;25.90;94.30
19908;DHT22;10116;53.112;7.356;2022-11-15T16:22:53;25.90;94.10
19908;DHT22;10116;53.112;7.356;2022-11-15T16:25:18;25.90;95.10
19908;DHT22;10116;53.112;7.356;2022-11-15T16:27:44;26.00;94.20
19908;DHT22;10116;53.112;7.356;2022-11-15T16:30:16;26.00;94.30
19908;DHT22;10116;53.112;7.356;2022-11-15T16:32:41;26.00;94.60
19908;DHT22;10116;53.112;7.356;2022-11-15T16:35:13;26.00;94.50
19908;DHT22;10116;53.112;7.356;2022-11-15T16:37:40;26.00;94.20
19908;DHT22;10116;53.112;7.356;2022-11-15T16:40:32;26.00;94.30
19908;DHT22;10116;53.112;7.356;2022-11-15T16:42:58;26.00;94.60
19908;DHT22;10116;53.112;7.356;2022-11-15T16:45:25;26.00;94.20
19908;DHT22;10116;53.112;7.356;2022-11-15T16:47:52;26.00;93.90
19908;DHT22;10116;53.112;7.356;2022-11-15T16:50:26;26.00;93.80
19908;DHT22;10116;53.112;7.356;2022-11-15T16:52:54;26.00;94.10
19908;DHT22;10116;53.112;7.356;2022-11-15T16:55:21;26.00;93.70
19908;DHT22;10116;53.112;7.356;2022-11-15T16:57:47;25.90;93.40
19908;DHT22;10116;53.112;7.356;2022-11-15T17:00:13;26.00;93.50
19908;DHT22;10116;53.112;7.356;2022-11-15T17:02:42;25.90;93.40
19908;DHT22;10116;53.112;7.356;2022-11-15T17:05:08;25.90;93.30
19908;DHT22;10116;53.112;7.356;2022-11-15T17:07:34;25.90;93.30
19908;DHT22;10116;53.112;7.356;2022-11-15T17:09:59;25.90;93.30
19908;DHT22;10116;53.112;7.356;2022-11-15T17:12:25;25.90;93.00
19908;DHT22;10116;53.112;7.356;2022-11-15T17:14:51;25.90;93.20
19908;DHT22;10116;53.112;7.356;2022-11-15T17:17:16;25.90;93.00
19908;DHT22;10116;53.112;7.356;2022-11-15T17:19:42;25.90;93.10
19908;DHT22;10116;53.112;7.356;2022-11-15T17:22:08;25.90;93.90
19908;DHT22;10116;53.112;7.356;2022-11-15T17:24:33;25.90;93.10
19908;DHT22;10116;53.112;7.356;2022-11-15T17:26:59;25.90;93.20
19908;DHT22;10116;53.112;7.356;2022-11-15T17:29:24;26.00;93.60
19908;DHT22;10116;53.112;7.356;2022-11-15T17:31:50;26.00;93.30
19908;DHT22;10116;53.112;7.356;2022-11-15T17:34:15;26.00;93.50
19908;DHT22;10116;53.112;7.356;2022-11-15T17:36:41;26.00;93.20